INFORMACIÓN METAR y TAF
METAR FOR LEZL
ADDS - METARS form results

(0909 UTC 25 August 2019)
Data provider http://aviationweather.gov/metar/data/
 
METAR text: LEZL 250900Z 04006KT 010V070 CAVOK 28/13 Q1015 NOSIG
Conditions at: LEZL (SEVILLA (CIV/MIL, ES) observed 0900 UTC 25 August 2019
Temperature: 28.0°C (82°F)
Dewpoint: 13.0°C (55°F) [RH = 40%]
Pressure (altimeter): 29.97 inches Hg (1015.0 mb)
Winds: from the NE (40 degrees) at 7 MPH (6 knots; 3.1 m/s)
Visibility: 6 or more miles (10+ km)
Ceiling: ceiling and visibility are OK
Clouds: unknown
Weather: no significant weather observed at this time

METAR text: LEZL 250830Z 04005KT 340V070 CAVOK 26/15 Q1015 NOSIG
Conditions at: LEZL (SEVILLA (CIV/MIL, ES) observed 0830 UTC 25 August 2019
Temperature: 26.0°C (79°F)
Dewpoint: 15.0°C (59°F) [RH = 51%]
Pressure (altimeter): 29.97 inches Hg (1015.0 mb)
Winds: from the NE (40 degrees) at 6 MPH (5 knots; 2.6 m/s)
Visibility: 6 or more miles (10+ km)
Ceiling: ceiling and visibility are OK
Clouds: unknown
Weather: no significant weather observed at this time

Forecast for: LEZL (SEVILLA (CIV/MIL, ES)
Text: TAF LEZL 250800Z 2509/2609 04004KT CAVOK TX35/2515Z TN21/2606Z
Forecast period: 0900 to 1200 UTC 25 August 2019
Forecast type: FROM: standard forecast or significant change
Winds: from the NE (40 degrees) at 5 MPH (4 knots; 2.1 m/s)
Visibility: 6 or more miles 10+ km)
Ceiling: unknown
Clouds: missing
Weather: no significant weather forecast for this period
Text: BECMG 2512/2515 22010KT
Forecast period: 1200 to 2100 UTC 25 August 2019
Forecast type: BECOMING: Conditions expected to become as follows by 1500 UTC 25 August 2019
Winds: from the SW (220 degrees) at 12 MPH (10 knots; 5.1 m/s)
Visibility: 6 or more miles 10+ km)
Ceiling: unknown
Clouds: missing
Weather: no significant weather forecast for this period
Text: BECMG 2521/2601 28004KT
Forecast period: 2100 UTC 25 August 2019 to 0900 UTC 26 August 2019
Forecast type: BECOMING: Conditions expected to become as follows by 0100 UTC 26 August 2019
Winds: from the W (280 degrees) at 5 MPH (4 knots; 2.1 m/s)
Visibility: 6 or more miles 10+ km)
Ceiling: unknown
Clouds: missing
Weather: no significant weather forecast for this period

 MAPA DE AEROPUERTO

 INFORMACIÓN DE PISTA
Pista 09 Longitud 11024 ft Ancho 148 ft
Elevación 83 ft Umbral desplazado 0 ft Rumbo de pista 90
Pista 27 Longitud 11024 ft Ancho 148 ft
Elevación 111 ft Umbral desplazado 0 ft Rumbo de pista 270

 FRECUANCIAS DEL AEROPUERTO
Tipo APP Nombre APP Frecuencia 120 MHZ
Tipo ATIS Nombre ATIS Frecuencia 118.175 MHZ
Tipo GND Nombre GND Frecuencia 121.7 MHZ
Tipo TWR Nombre TWR Frecuencia 118.1 MHZ

 RADIO AYUDAS DEL AEROPUERTO
Tipo NDB Nombre Sevilla Frecuencia 420 KHZ
Tipo VOR-DME Nombre Sevilla Frecuencia 113700 KHZ



Powered by Virtual Airlines Manager [v2.6.2]